createdAt,value
2018-10-16T00:00:13.604Z,11.73
2018-10-16T00:02:42.198Z,11.75
2018-10-16T00:05:10.630Z,11.66
2018-10-16T00:07:39.191Z,11.61
2018-10-16T00:10:08.165Z,11.51
2018-10-16T00:12:36.594Z,11.49
2018-10-16T00:15:15.548Z,11.48
2018-10-16T00:17:44.036Z,11.45
2018-10-16T00:20:12.610Z,11.34
2018-10-16T00:22:41.247Z,11.27
2018-10-16T00:25:12.866Z,11.36
2018-10-16T00:27:41.353Z,11.44
2018-10-16T00:30:09.849Z,11.52
2018-10-16T00:32:41.357Z,11.57
2018-10-16T00:35:12.162Z,11.60
2018-10-16T00:37:40.593Z,11.51
2018-10-16T00:40:09.820Z,11.43
2018-10-16T00:42:38.225Z,11.41
2018-10-16T00:45:07.753Z,11.43
2018-10-16T00:47:36.161Z,11.46
2018-10-16T00:50:04.590Z,11.44
2018-10-16T00:52:34.257Z,11.35
2018-10-16T00:55:02.858Z,11.37
2018-10-16T00:57:32.068Z,11.31
2018-10-16T01:00:00.679Z,11.30
2018-10-16T01:02:29.173Z,11.34
2018-10-16T01:04:58.106Z,11.38
2018-10-16T01:07:26.607Z,11.34
2018-10-16T01:09:55.402Z,11.30
2018-10-16T01:12:23.980Z,11.27
2018-10-16T01:14:52.514Z,11.23
2018-10-16T01:17:21.086Z,11.20
2018-10-16T01:19:49.473Z,10.94
2018-10-16T01:22:17.881Z,11.02
2018-10-16T01:24:46.265Z,11.03
2018-10-16T01:27:15.482Z,11.07
2018-10-16T01:29:44.041Z,10.99
2018-10-16T01:32:12.590Z,10.97
2018-10-16T01:34:41.070Z,10.94
2018-10-16T01:37:09.649Z,10.97
2018-10-16T01:39:38.854Z,10.86
2018-10-16T01:42:07.949Z,10.89
2018-10-16T01:44:36.978Z,10.72
2018-10-16T01:47:05.435Z,10.66
2018-10-16T01:49:33.850Z,10.52
2018-10-16T01:52:02.307Z,10.49
2018-10-16T01:54:30.697Z,10.44
2018-10-16T01:56:59.121Z,10.56
2018-10-16T01:59:27.548Z,10.63
2018-10-16T02:01:57.674Z,10.71
2018-10-16T02:04:26.282Z,10.55
2018-10-16T02:06:55.051Z,10.67
2018-10-16T02:09:23.586Z,10.62
2018-10-16T02:11:52.100Z,10.58
2018-10-16T02:14:26.528Z,10.61
2018-10-16T02:16:55.048Z,10.71
2018-10-16T02:19:23.441Z,10.69
2018-10-16T02:21:51.853Z,10.52
2018-10-16T02:24:20.242Z,10.37
2018-10-16T02:26:48.649Z,10.43
2018-10-16T02:29:17.184Z,10.42
2018-10-16T02:31:45.611Z,10.31
2018-10-16T02:34:14.134Z,10.25
2018-10-16T02:36:42.542Z,10.20
2018-10-16T02:39:11.533Z,10.19
2018-10-16T02:41:40.038Z,10.32
2018-10-16T02:44:09.246Z,10.33
2018-10-16T02:46:37.765Z,10.32
2018-10-16T02:49:06.545Z,10.29
2018-10-16T02:51:34.927Z,10.30
2018-10-16T02:54:03.333Z,10.37
2018-10-16T02:56:31.714Z,10.37
2018-10-16T02:59:00.130Z,10.37
2018-10-16T03:01:28.537Z,10.40
2018-10-16T03:03:56.945Z,10.41
2018-10-16T03:06:25.422Z,10.41
2018-10-16T03:08:53.845Z,10.54
2018-10-16T03:11:22.269Z,10.60
2018-10-16T03:13:50.681Z,10.59
2018-10-16T03:16:19.097Z,10.60
2018-10-16T03:18:47.478Z,10.58
2018-10-16T03:21:15.983Z,10.57
2018-10-16T03:23:44.366Z,10.47
2018-10-16T03:26:12.782Z,10.25
2018-10-16T03:28:41.202Z,10.10
2018-10-16T03:31:09.717Z,10.05
2018-10-16T03:33:38.098Z,10.03
2018-10-16T03:36:06.742Z,10.05
2018-10-16T03:38:35.128Z,10.07
2018-10-16T03:41:03.543Z,10.10
2018-10-16T03:43:31.941Z,10.15
2018-10-16T03:46:00.321Z,10.19
2018-10-16T03:48:28.730Z,10.11
2018-10-16T03:50:57.146Z,10.10
2018-10-16T03:53:25.570Z,10.03
2018-10-16T03:55:53.970Z,9.96
2018-10-16T03:58:22.428Z,9.93
2018-10-16T04:00:50.846Z,9.95
2018-10-16T04:03:19.212Z,9.87
2018-10-16T04:05:47.633Z,9.97
2018-10-16T04:08:16.012Z,9.98
2018-10-16T04:10:44.546Z,9.97
2018-10-16T04:13:13.047Z,9.93
2018-10-16T04:15:41.406Z,9.87
2018-10-16T04:18:09.824Z,9.89
2018-10-16T04:20:38.185Z,9.84
2018-10-16T04:23:06.689Z,9.84
2018-10-16T04:25:35.097Z,9.88
2018-10-16T04:28:04.147Z,9.98
2018-10-16T04:30:32.586Z,9.98
2018-10-16T04:33:01.123Z,9.97
2018-10-16T04:35:29.517Z,9.87
2018-10-16T04:37:57.947Z,9.85
2018-10-16T04:40:26.313Z,9.83
2018-10-16T04:42:54.783Z,9.97
2018-10-16T04:45:23.175Z,9.91
2018-10-16T04:47:51.584Z,9.86
2018-10-16T04:50:20.026Z,9.77
2018-10-16T04:52:48.444Z,9.65
2018-10-16T04:55:16.934Z,9.72
2018-10-16T04:57:45.261Z,9.75
2018-10-16T05:00:13.632Z,9.78
2018-10-16T05:02:42.503Z,9.78
2018-10-16T05:05:14.221Z,9.84
2018-10-16T05:07:51.250Z,9.82
2018-10-16T05:10:29.082Z,9.85
2018-10-16T05:12:58.509Z,9.89
2018-10-16T05:15:29.286Z,9.93
2018-10-16T05:17:57.873Z,9.92
2018-10-16T05:20:26.313Z,10.01
2018-10-16T05:22:55.395Z,10.14
2018-10-16T05:25:24.312Z,10.17
2018-10-16T05:27:52.717Z,10.31
2018-10-16T05:30:21.145Z,10.36
2018-10-16T05:32:49.531Z,10.37
2018-10-16T05:35:18.021Z,10.41
2018-10-16T05:37:46.429Z,10.45
2018-10-16T05:40:14.865Z,10.47
2018-10-16T05:42:43.306Z,10.46
2018-10-16T05:45:13.171Z,10.45
2018-10-16T05:47:42.919Z,10.38
2018-10-16T05:50:11.913Z,10.19
2018-10-16T05:52:40.332Z,10.12
2018-10-16T05:55:09.200Z,10.05
2018-10-16T05:57:37.593Z,10.06
2018-10-16T06:00:17.878Z,10.08
2018-10-16T06:02:47.408Z,10.15
2018-10-16T06:05:15.927Z,10.23
2018-10-16T06:07:44.734Z,10.23
2018-10-16T06:10:13.617Z,10.31
2018-10-16T06:12:42.113Z,10.30
2018-10-16T06:15:11.906Z,10.31
2018-10-16T06:17:40.374Z,10.36
2018-10-16T06:20:12.285Z,10.37
2018-10-16T06:22:41.104Z,10.36
2018-10-16T06:25:10.316Z,10.42
2018-10-16T06:27:40.348Z,10.47
2018-10-16T06:30:09.383Z,10.53
2018-10-16T06:32:38.973Z,10.61
2018-10-16T06:35:08.422Z,10.70
2018-10-16T06:37:37.274Z,10.75
2018-10-16T06:40:06.818Z,10.84
2018-10-16T06:42:35.329Z,10.91
2018-10-16T06:45:03.862Z,10.95
2018-10-16T06:47:32.324Z,10.84
2018-10-16T06:50:00.733Z,10.77
2018-10-16T06:52:29.307Z,10.69
2018-10-16T06:54:57.746Z,10.65
2018-10-16T06:57:27.097Z,10.61
2018-10-16T06:59:55.641Z,10.62
2018-10-16T07:02:24.318Z,10.68
2018-10-16T07:04:52.777Z,10.71
2018-10-16T07:07:21.532Z,10.78
2018-10-16T07:09:49.786Z,10.75
2018-10-16T07:12:18.269Z,10.83
2018-10-16T07:14:46.682Z,10.92
2018-10-16T07:17:15.116Z,11.07
2018-10-16T07:19:43.542Z,11.20
2018-10-16T07:22:12.654Z,11.31
2018-10-16T07:24:41.094Z,11.54
2018-10-16T07:27:09.493Z,11.80
2018-10-16T07:29:37.974Z,12.09
2018-10-16T07:32:06.575Z,12.30
2018-10-16T07:34:36.389Z,12.52
2018-10-16T07:37:05.273Z,12.74
2018-10-16T07:39:33.706Z,12.83
2018-10-16T07:42:02.706Z,12.96
2018-10-16T07:44:31.273Z,13.02
2018-10-16T07:46:59.693Z,13.10
2018-10-16T07:49:28.123Z,13.03
2018-10-16T07:51:56.518Z,12.95
2018-10-16T07:54:25.006Z,12.92
2018-10-16T07:56:53.424Z,12.90
2018-10-16T07:59:21.862Z,12.85
2018-10-16T08:01:50.298Z,12.90
2018-10-16T08:04:18.802Z,12.92
2018-10-16T08:06:47.227Z,13.18
2018-10-16T08:09:16.772Z,13.40
2018-10-16T08:11:46.493Z,13.55
2018-10-16T08:14:16.137Z,13.64
2018-10-16T08:16:45.819Z,13.71
2018-10-16T08:19:14.559Z,13.95
2018-10-16T08:21:43.453Z,13.98
2018-10-16T08:24:11.848Z,14.03
2018-10-16T08:26:46.925Z,14.13
2018-10-16T08:29:15.322Z,14.37
2018-10-16T08:31:44.283Z,14.45
2018-10-16T08:34:12.698Z,14.62
2018-10-16T08:36:41.303Z,14.69
2018-10-16T08:39:14.781Z,14.77
2018-10-16T08:43:57.387Z,14.86
2018-10-16T08:46:36.869Z,15.07
2018-10-16T08:49:16.551Z,15.16
2018-10-16T08:51:47.580Z,15.31
2018-10-16T08:54:16.005Z,15.44
2018-10-16T08:56:44.529Z,15.52
2018-10-16T08:59:13.130Z,15.63
2018-10-16T09:01:41.702Z,15.68
2018-10-16T09:04:10.325Z,15.62
2018-10-16T09:06:38.760Z,15.93
2018-10-16T09:09:09.472Z,15.88
2018-10-16T09:11:38.500Z,15.81
2018-10-16T09:14:07.380Z,15.88
2018-10-16T09:16:36.718Z,15.87
2018-10-16T09:19:05.675Z,16.08
2018-10-16T09:21:34.649Z,16.12
2018-10-16T09:24:03.552Z,16.29
2018-10-16T09:26:32.119Z,16.41
2018-10-16T09:29:00.490Z,16.45
2018-10-16T09:31:28.989Z,16.59
2018-10-16T09:33:59.975Z,16.67
2018-10-16T09:36:29.267Z,16.87
2018-10-16T09:38:57.717Z,17.07
2018-10-16T09:41:26.141Z,17.23
2018-10-16T09:43:54.778Z,17.36
2018-10-16T09:46:24.073Z,17.49
2018-10-16T09:48:52.977Z,17.54
2018-10-16T09:51:21.430Z,17.67
2018-10-16T09:53:49.818Z,17.82
2018-10-16T09:56:18.233Z,18.00
2018-10-16T09:58:46.658Z,18.10
2018-10-16T10:01:20.361Z,18.15
2018-10-16T10:03:48.785Z,18.12
2018-10-16T10:06:17.179Z,18.29
2018-10-16T10:08:45.607Z,18.42
2018-10-16T10:11:14.013Z,18.59
2018-10-16T10:13:42.485Z,18.69
2018-10-16T10:16:11.126Z,18.75
2018-10-16T10:18:39.518Z,18.85
2018-10-16T10:21:07.919Z,18.83
2018-10-16T10:23:36.326Z,19.00
2018-10-16T10:26:04.759Z,19.07
2018-10-16T10:28:33.161Z,19.35
2018-10-16T10:31:02.438Z,19.60
2018-10-16T10:33:30.843Z,19.67
2018-10-16T10:35:59.225Z,19.77
2018-10-16T10:38:27.998Z,19.87
2018-10-16T10:40:56.800Z,19.97
2018-10-16T10:43:25.293Z,20.19
2018-10-16T10:45:53.819Z,20.59
2018-10-16T10:48:22.190Z,20.59
2018-10-16T10:50:50.788Z,20.52
2018-10-16T10:53:19.026Z,20.57
2018-10-16T10:55:47.434Z,20.74
2018-10-16T10:58:16.822Z,20.95
2018-10-16T11:00:45.250Z,20.95
2018-10-16T11:03:13.735Z,21.09
2018-10-16T11:05:42.965Z,21.35
2018-10-16T11:08:11.333Z,21.48
2018-10-16T11:10:39.748Z,21.60
2018-10-16T11:13:08.149Z,21.61
2018-10-16T11:15:37.622Z,21.74
2018-10-16T11:18:06.106Z,21.87
2018-10-16T11:20:34.543Z,21.97
2018-10-16T11:23:02.938Z,21.97
2018-10-16T11:25:31.671Z,22.12
2018-10-16T11:28:00.077Z,22.27
2018-10-16T11:30:28.486Z,22.25
2018-10-16T11:32:56.893Z,22.34
2018-10-16T11:35:25.286Z,22.37
2018-10-16T11:37:53.710Z,22.50
2018-10-16T11:40:22.068Z,22.50
2018-10-16T11:42:50.464Z,22.45
2018-10-16T11:45:18.985Z,22.52
2018-10-16T11:47:47.420Z,22.41
2018-10-16T11:50:15.935Z,22.52
2018-10-16T11:52:44.290Z,22.52
2018-10-16T11:55:13.118Z,22.71
2018-10-16T11:57:41.503Z,22.92
2018-10-16T12:00:12.554Z,23.10
2018-10-16T12:02:41.125Z,23.11
2018-10-16T12:05:10.019Z,22.86
2018-10-16T12:07:38.591Z,22.91
2018-10-16T12:10:07.091Z,22.97
2018-10-16T12:12:35.526Z,22.90
2018-10-16T12:15:04.143Z,22.91
2018-10-16T12:17:38.025Z,23.08
2018-10-16T12:20:11.955Z,23.16
2018-10-16T12:22:40.643Z,23.18
2018-10-16T12:25:09.252Z,23.29
2018-10-16T12:27:37.644Z,23.27
2018-10-16T12:30:06.740Z,23.49
2018-10-16T12:32:35.282Z,23.55
2018-10-16T12:35:03.763Z,23.85
2018-10-16T12:37:32.168Z,23.95
2018-10-16T12:40:00.645Z,23.95
2018-10-16T12:42:28.981Z,24.12
2018-10-16T12:44:57.508Z,24.22
2018-10-16T12:47:25.898Z,24.15
2018-10-16T12:49:54.339Z,24.17
2018-10-16T12:52:22.721Z,24.28
2018-10-16T12:54:51.164Z,24.58
2018-10-16T12:57:19.655Z,24.87
2018-10-16T12:59:48.150Z,24.94
2018-10-16T13:02:16.609Z,25.15
2018-10-16T13:04:44.958Z,25.33
2018-10-16T13:07:18.781Z,25.44
2018-10-16T13:09:47.193Z,25.39
2018-10-16T13:12:15.601Z,25.49
2018-10-16T13:14:44.030Z,25.49
2018-10-16T13:17:12.445Z,25.47
2018-10-16T13:19:40.875Z,25.26
2018-10-16T13:22:09.338Z,25.21
2018-10-16T13:24:37.702Z,25.59
2018-10-16T13:27:06.405Z,26.42
2018-10-16T13:29:35.320Z,26.94
2018-10-16T13:32:03.666Z,27.75
2018-10-16T13:34:32.714Z,27.63
2018-10-16T13:37:01.132Z,27.62
2018-10-16T13:39:29.503Z,26.70
2018-10-16T13:41:57.866Z,26.45
2018-10-16T13:44:26.301Z,26.24
2018-10-16T13:46:54.690Z,26.83
2018-10-16T13:49:23.135Z,28.15
2018-10-16T13:51:51.610Z,28.96
2018-10-16T13:54:20.059Z,29.28
2018-10-16T13:56:48.613Z,29.71
2018-10-16T13:59:16.988Z,29.48
2018-10-16T14:01:45.469Z,28.76
2018-10-16T14:04:14.014Z,27.61
2018-10-16T14:06:42.439Z,26.76
2018-10-16T14:09:10.834Z,25.77
2018-10-16T14:11:39.259Z,25.08
2018-10-16T14:14:07.753Z,24.56
2018-10-16T14:16:36.436Z,24.68
2018-10-16T14:19:05.073Z,24.59
2018-10-16T14:21:33.569Z,24.42
2018-10-16T14:24:01.935Z,24.35
2018-10-16T14:26:30.402Z,24.32
2018-10-16T14:28:58.829Z,24.21
2018-10-16T14:31:27.785Z,24.23
2018-10-16T14:33:56.309Z,24.70
2018-10-16T14:36:25.802Z,25.76
2018-10-16T14:38:54.246Z,26.01
2018-10-16T14:41:22.972Z,25.59
2018-10-16T14:43:51.761Z,25.13
2018-10-16T14:46:21.182Z,24.79
2018-10-16T14:48:51.330Z,24.59
2018-10-16T14:51:19.722Z,24.46
2018-10-16T14:53:48.100Z,24.25
2018-10-16T14:56:16.825Z,24.15
2018-10-16T14:58:45.189Z,24.18
2018-10-16T15:01:13.593Z,24.11
2018-10-16T15:03:41.979Z,23.97
2018-10-16T15:06:10.398Z,23.81
2018-10-16T15:08:38.790Z,23.61
2018-10-16T15:11:07.186Z,23.45
2018-10-16T15:13:35.605Z,23.31
2018-10-16T15:16:04.088Z,23.19
2018-10-16T15:18:36.774Z,23.23
2018-10-16T15:21:07.446Z,23.79
2018-10-16T15:23:35.937Z,24.53
2018-10-16T15:26:04.369Z,24.92
2018-10-16T15:28:32.760Z,24.85
2018-10-16T15:31:01.156Z,24.67
2018-10-16T15:33:30.126Z,24.52
2018-10-16T15:35:58.932Z,24.42
2018-10-16T15:38:27.328Z,24.45
2018-10-16T15:40:55.814Z,24.45
2018-10-16T15:43:24.225Z,24.55
2018-10-16T15:45:53.518Z,24.53
2018-10-16T15:48:21.952Z,24.49
2018-10-16T15:50:50.574Z,24.37
2018-10-16T15:53:18.770Z,24.17
2018-10-16T15:55:47.147Z,23.90
2018-10-16T15:58:15.624Z,23.69
2018-10-16T16:00:43.987Z,23.38
2018-10-16T16:03:12.490Z,23.13
2018-10-16T16:05:40.926Z,22.79
2018-10-16T16:08:09.398Z,22.47
2018-10-16T16:10:37.752Z,22.18
2018-10-16T16:13:08.630Z,21.91
2018-10-16T16:15:37.111Z,21.64
2018-10-16T16:18:12.435Z,21.34
2018-10-16T16:20:40.738Z,21.05
2018-10-16T16:23:09.224Z,20.75
2018-10-16T16:25:37.750Z,20.49
2018-10-16T16:28:06.188Z,20.12
2018-10-16T16:30:34.609Z,20.07
2018-10-16T16:33:03.008Z,19.89
2018-10-16T16:35:31.473Z,19.77
2018-10-16T16:37:59.944Z,19.64
2018-10-16T16:40:28.378Z,19.52
2018-10-16T16:42:56.857Z,19.40
2018-10-16T16:45:25.314Z,19.32
2018-10-16T16:47:53.788Z,19.22
2018-10-16T16:50:22.191Z,19.10
2018-10-16T16:52:50.593Z,18.92
2018-10-16T16:55:19.116Z,18.83
2018-10-16T16:57:47.629Z,18.74
2018-10-16T17:00:16.782Z,18.63
2018-10-16T17:02:46.166Z,18.51
2018-10-16T17:05:15.218Z,18.34
2018-10-16T17:07:44.266Z,18.22
2018-10-16T17:10:12.793Z,18.08
2018-10-16T17:12:41.701Z,17.88
2018-10-16T17:15:12.949Z,17.73
2018-10-16T17:17:41.467Z,17.61
2018-10-16T17:20:10.774Z,17.51
2018-10-16T17:22:39.123Z,17.44
2018-10-16T17:25:09.116Z,17.37
2018-10-16T17:27:37.476Z,17.31
2018-10-16T17:30:08.826Z,17.31
2018-10-16T17:32:37.362Z,17.24
2018-10-16T17:35:06.579Z,17.13
2018-10-16T17:37:35.053Z,17.03
2018-10-16T17:40:03.474Z,16.95
2018-10-16T17:42:31.917Z,16.88
2018-10-16T17:45:00.305Z,16.80
2018-10-16T17:47:28.772Z,16.76
2018-10-16T17:49:57.149Z,16.67
2018-10-16T17:52:25.604Z,16.59
2018-10-16T17:54:54.216Z,16.55
2018-10-16T17:57:22.665Z,16.52
2018-10-16T17:59:51.224Z,16.51
2018-10-16T18:02:19.655Z,16.42
2018-10-16T18:04:48.066Z,16.34
2018-10-16T18:07:16.481Z,16.29
2018-10-16T18:09:45.113Z,16.18
2018-10-16T18:12:13.559Z,16.12
2018-10-16T18:14:41.970Z,16.00
2018-10-16T18:17:10.441Z,15.90
2018-10-16T18:19:38.944Z,15.88
2018-10-16T18:22:07.367Z,16.00
2018-10-16T18:24:35.798Z,16.05
2018-10-16T18:27:04.296Z,16.07
2018-10-16T18:29:32.615Z,16.11
2018-10-16T18:32:01.002Z,16.09
2018-10-16T18:34:29.501Z,16.05
2018-10-16T18:36:57.882Z,16.01
2018-10-16T18:39:26.345Z,15.96
2018-10-16T18:41:54.810Z,15.88
2018-10-16T18:44:23.277Z,15.84
2018-10-16T18:46:51.629Z,15.78
2018-10-16T18:49:20.006Z,15.73
2018-10-16T18:51:48.440Z,15.65
2018-10-16T18:54:16.855Z,15.61
2018-10-16T18:56:45.265Z,15.60
2018-10-16T18:59:13.682Z,15.61
2018-10-16T19:01:42.129Z,15.63
2018-10-16T19:04:10.730Z,15.55
2018-10-16T19:06:39.270Z,15.55
2018-10-16T19:09:10.496Z,15.46
2018-10-16T19:11:38.878Z,15.47
2018-10-16T19:14:08.002Z,15.54
2018-10-16T19:16:36.746Z,15.72
2018-10-16T19:19:05.269Z,15.78
2018-10-16T19:21:33.956Z,15.89
2018-10-16T19:24:02.395Z,15.87
2018-10-16T19:26:30.793Z,15.78
2018-10-16T19:28:59.189Z,15.71
2018-10-16T19:31:27.639Z,15.62
2018-10-16T19:33:56.034Z,15.53
2018-10-16T19:36:25.057Z,15.49
2018-10-16T19:38:53.477Z,15.43
2018-10-16T19:41:21.888Z,15.46
2018-10-16T19:43:50.267Z,15.45
2018-10-16T19:46:21.245Z,15.48
2018-10-16T19:48:49.660Z,15.49
2018-10-16T19:51:18.100Z,15.44
2018-10-16T19:53:46.662Z,15.33
2018-10-16T19:56:15.084Z,15.29
2018-10-16T19:58:43.576Z,15.13
2018-10-16T20:01:11.990Z,15.06
2018-10-16T20:03:40.469Z,14.94
2018-10-16T20:06:08.992Z,14.93
2018-10-16T20:08:37.426Z,14.84
2018-10-16T20:11:05.978Z,14.77
2018-10-16T20:13:34.377Z,14.68
2018-10-16T20:16:02.818Z,14.62
2018-10-16T20:18:39.171Z,14.53
2018-10-16T20:23:46.514Z,14.42
2018-10-16T20:26:15.677Z,14.41
2018-10-16T20:28:44.269Z,14.41
2018-10-16T20:31:12.935Z,14.39
2018-10-16T20:33:41.403Z,14.38
2018-10-16T20:36:10.010Z,14.29
2018-10-16T20:38:38.491Z,14.14
2018-10-16T20:41:06.991Z,14.08
2018-10-16T20:43:36.411Z,14.04
2018-10-16T20:46:05.298Z,13.99
2018-10-16T20:48:34.461Z,13.95
2018-10-16T20:51:03.042Z,13.91
2018-10-16T20:53:31.709Z,13.95
2018-10-16T20:56:00.106Z,13.90
2018-10-16T20:58:28.650Z,13.85
2018-10-16T21:00:57.366Z,13.79
2018-10-16T21:03:25.893Z,13.82
2018-10-16T21:05:54.599Z,13.81
2018-10-16T21:08:22.959Z,13.80
2018-10-16T21:10:51.389Z,13.83
2018-10-16T21:13:19.942Z,13.88
2018-10-16T21:15:48.395Z,13.94
2018-10-16T21:18:17.077Z,13.81
2018-10-16T21:20:45.546Z,13.78
2018-10-16T21:23:14.026Z,13.75
2018-10-16T21:25:42.620Z,13.69
2018-10-16T21:28:11.469Z,13.71
2018-10-16T21:30:40.498Z,13.67
2018-10-16T21:33:09.878Z,13.68
2018-10-16T21:35:38.253Z,13.65
2018-10-16T21:38:06.729Z,13.61
2018-10-16T21:40:35.225Z,13.56
2018-10-16T21:43:03.818Z,13.47
2018-10-16T21:45:32.272Z,13.29
2018-10-16T21:48:00.857Z,13.21
2018-10-16T21:50:29.325Z,13.13
2018-10-16T21:52:57.764Z,13.13
2018-10-16T21:55:26.229Z,13.14
2018-10-16T21:57:54.625Z,12.99
2018-10-16T22:00:28.297Z,12.92
2018-10-16T22:02:57.882Z,12.88
2018-10-16T22:05:26.505Z,12.84
2018-10-16T22:07:56.353Z,12.74
2018-10-16T22:10:24.916Z,12.73
2018-10-16T22:12:53.382Z,12.72
2018-10-16T22:15:22.200Z,12.80
2018-10-16T22:17:50.813Z,12.87
2018-10-16T22:20:19.310Z,12.86
2018-10-16T22:22:47.913Z,12.85
2018-10-16T22:25:16.432Z,12.80
2018-10-16T22:27:44.889Z,12.78
2018-10-16T22:30:13.416Z,12.74
2018-10-16T22:32:51.731Z,12.76
2018-10-16T22:35:20.210Z,12.74
2018-10-16T22:37:48.647Z,12.73
2018-10-16T22:40:17.138Z,12.70
2018-10-16T22:42:45.578Z,12.69
2018-10-16T22:45:14.038Z,12.64
2018-10-16T22:47:42.501Z,12.64
2018-10-16T22:50:12.617Z,12.73
2018-10-16T22:52:41.029Z,12.66
2018-10-16T22:55:10.335Z,12.62
2018-10-16T22:57:38.832Z,12.57
2018-10-16T23:00:12.538Z,12.59
2018-10-16T23:02:40.913Z,12.58
2018-10-16T23:05:09.356Z,12.55
2018-10-16T23:07:37.788Z,12.53
2018-10-16T23:10:06.311Z,12.51
2018-10-16T23:12:34.776Z,12.55
2018-10-16T23:15:03.273Z,12.50
2018-10-16T23:17:31.769Z,12.47
2018-10-16T23:20:00.121Z,12.48
2018-10-16T23:22:28.521Z,12.42
2018-10-16T23:24:56.943Z,12.39
2018-10-16T23:27:25.357Z,12.40
2018-10-16T23:29:53.761Z,12.44
2018-10-16T23:32:22.172Z,12.44
2018-10-16T23:34:50.575Z,12.33
2018-10-16T23:37:18.956Z,12.23
2018-10-16T23:39:47.329Z,12.08
2018-10-16T23:42:15.717Z,12.01
2018-10-16T23:44:44.077Z,11.94
2018-10-16T23:47:12.536Z,11.93
2018-10-16T23:49:40.933Z,11.99
2018-10-16T23:52:09.322Z,11.99
2018-10-16T23:54:37.729Z,11.99
2018-10-16T23:57:06.200Z,12.05
2018-10-16T23:59:34.581Z,12.15
